createdAt,value
2019-06-15T09:57:21.872Z,96.50
2019-06-15T09:59:50.881Z,98.50
2019-06-15T10:02:20.152Z,98.10
2019-06-15T10:04:49.227Z,97.20
2019-06-15T10:07:18.667Z,97.20
2019-06-15T10:09:47.696Z,96.40
2019-06-15T10:12:16.800Z,96.40
2019-06-15T10:14:46.353Z,97.00
2019-06-15T10:17:15.416Z,96.00
2019-06-15T10:19:44.492Z,97.40
2019-06-15T10:22:13.709Z,95.30
2019-06-15T10:24:43.145Z,95.80
2019-06-15T10:27:12.044Z,95.50
2019-06-15T10:29:42.441Z,94.20
2019-06-15T10:32:12.415Z,95.20
2019-06-15T10:34:41.480Z,98.00
2019-06-15T10:37:10.552Z,95.60
2019-06-15T10:39:39.897Z,96.10
2019-06-15T10:42:09.006Z,95.40
2019-06-15T10:44:38.241Z,95.00
2019-06-15T10:47:07.390Z,95.40
2019-06-15T10:49:36.955Z,95.90
2019-06-15T10:52:05.970Z,97.40
2019-06-15T10:54:35.464Z,96.30
2019-06-15T10:57:04.850Z,96.60
2019-06-15T10:59:33.915Z,96.30
2019-06-15T11:02:03.490Z,96.80
2019-06-15T11:04:32.641Z,96.40
2019-06-15T11:07:01.840Z,95.90
2019-06-15T11:09:31.139Z,95.80
2019-06-15T11:12:00.157Z,94.10
2019-06-15T11:14:29.152Z,93.10
2019-06-15T11:16:59.693Z,93.40
2019-06-15T11:19:28.899Z,96.00
2019-06-15T11:21:58.041Z,94.90
2019-06-15T11:24:27.052Z,95.20
2019-06-15T11:26:56.117Z,96.20
2019-06-15T11:29:25.052Z,95.80
2019-06-15T11:31:54.121Z,95.70
2019-06-15T11:34:23.617Z,95.90
2019-06-15T11:36:52.641Z,95.60
2019-06-15T11:39:21.716Z,95.10
2019-06-15T11:41:50.766Z,95.00
2019-06-15T11:44:19.716Z,95.30
2019-06-15T11:46:50.263Z,96.50
2019-06-15T11:49:19.419Z,97.10
2019-06-15T11:51:48.432Z,97.10
2019-06-15T11:54:17.387Z,96.60
2019-06-15T11:56:46.378Z,97.40
2019-06-15T11:59:15.327Z,97.00
2019-06-15T12:01:44.523Z,96.10
2019-06-15T12:04:13.793Z,97.90
2019-06-15T12:06:42.763Z,97.80
2019-06-15T12:09:11.743Z,97.70
2019-06-15T12:11:41.506Z,97.80
2019-06-15T12:14:10.504Z,97.10
2019-06-15T12:16:44.356Z,97.90
2019-06-15T12:19:13.491Z,98.20
2019-06-15T12:21:42.812Z,98.00
2019-06-15T12:24:12.034Z,98.70
2019-06-15T12:26:41.567Z,99.20
2019-06-15T12:29:11.242Z,98.90
2019-06-15T12:31:40.437Z,99.00
2019-06-15T12:34:09.693Z,99.20
2019-06-15T12:36:38.756Z,99.40
2019-06-15T12:39:07.830Z,99.60
2019-06-15T12:41:37.043Z,99.90
2019-06-15T12:44:06.176Z,99.60
2019-06-15T12:46:35.633Z,99.90
2019-06-15T12:49:05.167Z,99.90
2019-06-15T12:51:34.158Z,99.90
2019-06-15T12:54:03.084Z,99.90
2019-06-15T12:56:32.090Z,99.90
2019-06-15T12:59:01.031Z,92.90
2019-06-15T13:01:29.943Z,95.00
2019-06-15T13:03:58.857Z,99.90
2019-06-15T13:06:27.818Z,99.90
2019-06-15T13:08:58.169Z,99.90
2019-06-15T13:11:27.182Z,99.90
2019-06-15T13:13:56.362Z,99.90
2019-06-15T13:16:38.612Z,99.90
2019-06-15T13:18:57.229Z,99.90
2019-06-15T13:21:26.351Z,99.90
2019-06-15T13:23:55.227Z,99.90
2019-06-15T13:26:24.280Z,99.40
2019-06-15T13:28:53.255Z,98.70
2019-06-15T13:31:22.239Z,98.80
2019-06-15T13:33:51.170Z,99.90
2019-06-15T13:36:20.165Z,99.90
2019-06-15T13:38:49.223Z,98.40
2019-06-15T13:41:18.351Z,97.30
2019-06-15T13:43:47.360Z,97.20
2019-06-15T13:46:16.270Z,96.90
2019-06-15T13:48:45.253Z,98.00
2019-06-15T13:51:14.312Z,97.50
2019-06-15T13:53:43.282Z,96.90
2019-06-15T13:56:12.927Z,97.10
2019-06-15T13:58:41.899Z,95.50
2019-06-15T14:01:10.838Z,95.80
2019-06-15T14:03:39.799Z,95.80
2019-06-15T14:06:08.924Z,96.30
2019-06-15T14:08:38.010Z,96.00
2019-06-15T14:11:06.880Z,96.70
2019-06-15T14:13:36.337Z,95.60
2019-06-15T14:16:05.382Z,97.10
2019-06-15T14:18:34.306Z,96.40
2019-06-15T14:21:03.284Z,97.00
2019-06-15T14:23:32.462Z,96.20
2019-06-15T14:26:01.536Z,97.10
2019-06-15T14:28:30.553Z,96.80
2019-06-15T14:30:59.464Z,96.30
2019-06-15T14:33:28.341Z,95.50
2019-06-15T14:35:57.326Z,95.90
2019-06-15T14:38:26.323Z,96.20
2019-06-15T14:40:55.196Z,96.40
2019-06-15T14:43:24.146Z,95.80
2019-06-15T14:45:59.411Z,95.70
2019-06-15T14:48:23.616Z,95.30
2019-06-15T14:50:52.512Z,93.80
2019-06-15T14:53:21.390Z,94.10
2019-06-15T14:55:50.378Z,93.30
2019-06-15T14:58:19.521Z,94.30
2019-06-15T15:00:48.457Z,94.90
2019-06-15T15:03:17.364Z,95.80
2019-06-15T15:05:46.329Z,94.90
2019-06-15T15:08:15.551Z,94.10
2019-06-15T15:10:44.426Z,93.90
2019-06-15T15:13:13.435Z,94.30
2019-06-15T15:15:42.348Z,94.60
2019-06-15T15:18:11.351Z,93.60
2019-06-15T15:20:40.458Z,94.50
2019-06-15T15:23:09.586Z,95.60
2019-06-15T15:25:38.586Z,95.20
2019-06-15T15:28:07.562Z,95.60
2019-06-15T15:30:43.636Z,94.30
2019-06-15T15:33:12.670Z,92.60
2019-06-15T15:35:41.582Z,93.00
2019-06-15T15:38:10.823Z,91.30
2019-06-15T15:40:40.916Z,91.80
2019-06-15T15:43:09.858Z,92.00
2019-06-15T15:45:38.763Z,92.20
2019-06-15T15:48:07.776Z,92.60
2019-06-15T15:50:37.173Z,93.60
2019-06-15T15:53:06.813Z,93.40
2019-06-15T15:55:35.822Z,93.50
2019-06-15T15:58:06.707Z,93.40
2019-06-15T16:00:35.903Z,93.80
2019-06-15T16:03:07.035Z,93.30
2019-06-15T16:05:37.241Z,91.80
2019-06-15T16:08:06.675Z,92.30
2019-06-15T16:10:37.371Z,92.10
2019-06-15T16:13:06.626Z,91.50
2019-06-15T16:15:37.325Z,92.00
2019-06-15T16:18:07.279Z,91.60
2019-06-15T16:20:36.975Z,92.00
2019-06-15T16:23:07.523Z,91.90
2019-06-15T16:25:37.540Z,92.30
2019-06-15T16:28:07.154Z,92.30
2019-06-15T16:31:00.625Z,92.10
2019-06-15T16:33:07.973Z,92.40
2019-06-15T16:35:37.355Z,92.40
2019-06-15T16:38:06.874Z,91.50
2019-06-15T16:40:40.260Z,91.80
2019-06-15T16:43:09.285Z,91.90
2019-06-15T16:45:38.448Z,92.40
2019-06-15T16:48:07.480Z,92.50
2019-06-15T16:50:37.035Z,92.40
2019-06-15T16:53:06.189Z,92.00
2019-06-15T16:55:36.797Z,91.80
2019-06-15T16:58:07.449Z,92.00
2019-06-15T17:00:36.867Z,92.60
2019-06-15T17:03:19.848Z,92.30
2019-06-15T17:05:37.423Z,92.90
2019-06-15T17:08:06.945Z,92.70
2019-06-15T17:10:41.611Z,92.80
2019-06-15T17:13:10.980Z,93.20
2019-06-15T17:15:40.030Z,93.50
2019-06-15T17:18:09.277Z,93.50
2019-06-15T17:20:47.316Z,94.00
2019-06-15T17:23:16.518Z,94.30
2019-06-15T17:25:46.267Z,94.40
2019-06-15T17:28:15.291Z,94.80
2019-06-15T17:30:45.377Z,94.80
2019-06-15T17:33:16.643Z,94.70
2019-06-15T17:35:56.218Z,94.80
2019-06-15T17:38:16.849Z,94.80
2019-06-15T17:40:46.255Z,95.20
2019-06-15T17:43:16.119Z,95.30
2019-06-15T17:45:46.791Z,95.30
2019-06-15T17:48:17.481Z,95.50
2019-06-15T17:50:47.911Z,95.50
2019-06-15T17:53:17.259Z,95.40
2019-06-15T17:55:46.925Z,95.40
2019-06-15T17:58:16.989Z,95.80
2019-06-15T18:00:48.049Z,96.10
2019-06-15T18:03:17.366Z,96.20
2019-06-15T18:05:47.998Z,96.20
2019-06-15T18:08:17.132Z,96.20
2019-06-15T18:10:47.562Z,96.30
2019-06-15T18:13:17.307Z,96.40
2019-06-15T18:15:47.531Z,96.60
2019-06-15T18:18:17.252Z,96.80
2019-06-15T18:20:46.657Z,96.90
2019-06-15T18:23:17.507Z,97.10
2019-06-15T18:25:46.799Z,97.60
2019-06-15T18:28:17.472Z,97.80
2019-06-15T18:30:47.567Z,98.10
2019-06-15T18:33:17.377Z,98.20
2019-06-15T18:35:47.568Z,98.30
2019-06-15T18:38:17.216Z,98.60
2019-06-15T18:40:46.120Z,98.80
2019-06-15T18:43:16.706Z,99.20
2019-06-15T18:45:47.298Z,99.40
2019-06-15T18:48:16.778Z,99.50
2019-06-15T18:50:46.056Z,99.60
2019-06-15T18:53:14.970Z,99.70
2019-06-15T18:55:43.860Z,99.80
2019-06-15T18:58:12.790Z,99.90
2019-06-15T19:00:41.713Z,99.90
2019-06-15T19:03:10.672Z,99.90
2019-06-15T19:05:39.607Z,99.90
2019-06-15T19:08:08.696Z,99.90
2019-06-15T19:10:38.220Z,99.90
2019-06-15T19:13:07.745Z,99.90
2019-06-15T19:15:37.663Z,99.90
2019-06-15T19:18:07.627Z,99.90
2019-06-15T19:20:37.495Z,99.90
2019-06-15T19:23:07.257Z,99.90
2019-06-15T19:25:36.659Z,99.90
2019-06-15T19:28:05.937Z,99.90
2019-06-15T19:30:37.361Z,99.90
2019-06-15T19:33:05.809Z,99.90
2019-06-15T19:35:36.354Z,99.90
2019-06-15T19:38:06.503Z,99.90
2019-06-15T19:40:37.830Z,99.90
2019-06-15T19:43:07.145Z,99.90
2019-06-15T19:45:37.107Z,99.90
2019-06-15T19:48:07.055Z,99.90
2019-06-15T19:50:36.333Z,99.90
2019-06-15T19:53:07.130Z,99.90
2019-06-15T19:55:36.418Z,99.90
2019-06-15T19:58:07.107Z,99.90
2019-06-15T20:00:37.165Z,99.90
2019-06-15T20:03:07.153Z,99.90
2019-06-15T20:05:37.233Z,99.90
2019-06-15T20:08:06.972Z,99.90
2019-06-15T20:10:37.235Z,99.90
2019-06-15T20:13:07.316Z,99.90
2019-06-15T20:15:37.991Z,99.90
2019-06-15T20:18:07.333Z,99.90
2019-06-15T20:20:37.210Z,99.90
2019-06-15T20:23:07.325Z,99.90
2019-06-15T20:25:37.095Z,99.90
2019-06-15T20:28:07.149Z,99.90
2019-06-15T20:30:37.145Z,99.90
2019-06-15T20:33:07.773Z,99.90
2019-06-15T20:35:37.395Z,99.90
2019-06-15T20:38:06.425Z,99.90
2019-06-15T20:40:36.444Z,99.90
2019-06-15T20:43:07.597Z,99.90
2019-06-15T20:45:37.211Z,99.90
2019-06-15T20:48:06.966Z,99.90
2019-06-15T20:50:36.496Z,99.90
2019-06-15T20:53:06.153Z,99.90
2019-06-15T20:55:37.271Z,99.90
2019-06-15T20:58:07.080Z,99.90
2019-06-15T21:00:37.098Z,99.90
2019-06-15T21:03:07.005Z,99.90
2019-06-15T21:05:41.640Z,99.90
2019-06-15T21:08:07.536Z,99.90
2019-06-15T21:10:37.421Z,99.90
2019-06-15T21:13:07.141Z,99.90
2019-06-15T21:15:39.079Z,99.90
2019-06-15T21:18:08.204Z,99.90
2019-06-15T21:20:37.163Z,99.90
2019-06-15T21:23:06.600Z,99.90
2019-06-15T21:25:35.893Z,99.90
2019-06-15T21:28:06.765Z,99.90
2019-06-15T21:30:36.840Z,99.90
2019-06-15T21:33:07.063Z,99.90
2019-06-15T21:35:48.584Z,99.90
2019-06-15T21:38:07.943Z,99.90
2019-06-15T21:40:37.010Z,99.90
2019-06-15T21:43:07.109Z,99.90
2019-06-15T21:45:37.015Z,99.90
2019-06-15T21:48:07.026Z,99.90
2019-06-15T21:50:36.459Z,99.90
2019-06-15T21:53:06.943Z,99.90
2019-06-15T21:55:36.715Z,99.90
2019-06-15T21:58:07.559Z,99.90
2019-06-15T22:00:51.492Z,99.90
2019-06-15T22:03:20.394Z,99.90
2019-06-15T22:06:02.129Z,99.90
2019-06-15T22:08:19.877Z,99.90
2019-06-15T22:10:48.873Z,99.90
2019-06-15T22:13:30.017Z,99.90
2019-06-15T22:15:58.964Z,99.90
2019-06-15T22:18:28.513Z,99.90
2019-06-15T22:20:58.532Z,99.90
2019-06-15T22:23:28.538Z,99.90
2019-06-15T22:25:57.564Z,99.90
2019-06-15T22:28:27.155Z,99.90
2019-06-15T22:30:57.136Z,99.90
2019-06-15T22:33:27.048Z,99.90
2019-06-15T22:35:56.588Z,99.90
2019-06-15T22:38:25.917Z,99.90
2019-06-15T22:40:56.416Z,99.90
2019-06-15T22:43:27.310Z,99.90
2019-06-15T22:45:57.046Z,99.90
2019-06-15T22:48:27.275Z,99.90
2019-06-15T22:50:56.709Z,99.90
2019-06-15T22:53:27.231Z,99.90
2019-06-15T22:55:57.038Z,99.90
2019-06-15T22:58:27.011Z,99.90
2019-06-15T23:00:56.866Z,99.90
2019-06-15T23:03:26.379Z,99.90
2019-06-15T23:05:57.159Z,99.90
2019-06-15T23:08:26.195Z,99.90
2019-06-15T23:10:57.193Z,99.90
2019-06-15T23:13:26.205Z,99.90
2019-06-15T23:15:56.362Z,99.90
2019-06-15T23:18:25.858Z,99.90
2019-06-15T23:20:56.933Z,99.90
2019-06-15T23:23:25.679Z,99.90
2019-06-15T23:25:56.604Z,99.90
2019-06-15T23:28:27.054Z,99.90
2019-06-15T23:30:56.611Z,99.90
2019-06-15T23:33:26.574Z,99.90
2019-06-15T23:35:57.725Z,99.90
2019-06-15T23:38:26.971Z,99.90
2019-06-15T23:40:56.250Z,99.90
2019-06-15T23:43:26.878Z,99.90
2019-06-15T23:45:56.495Z,99.90
2019-06-15T23:48:26.680Z,99.90
2019-06-15T23:50:56.912Z,99.90
2019-06-15T23:53:26.525Z,99.90
2019-06-15T23:55:56.927Z,99.90
2019-06-15T23:58:26.458Z,99.90
